createdAt,value
2023-06-30T00:00:14.620Z,16.56
2023-06-30T00:02:42.481Z,16.49
2023-06-30T00:05:10.352Z,16.45
2023-06-30T00:07:38.309Z,16.38
2023-06-30T00:10:07.221Z,16.38
2023-06-30T00:12:34.351Z,16.32
2023-06-30T00:15:01.620Z,16.28
2023-06-30T00:17:28.206Z,16.21
2023-06-30T00:19:58.965Z,16.13
2023-06-30T00:22:26.583Z,16.07
2023-06-30T00:24:56.963Z,16.08
2023-06-30T00:27:24.597Z,16.09
2023-06-30T00:29:52.003Z,16.08
2023-06-30T00:32:18.666Z,16.03
2023-06-30T00:34:45.189Z,15.94
2023-06-30T00:37:11.908Z,15.91
2023-06-30T00:39:38.452Z,15.89
2023-06-30T00:42:05.150Z,15.84
2023-06-30T00:44:31.782Z,15.79
2023-06-30T00:47:01.937Z,15.71
2023-06-30T00:49:32.521Z,15.69
2023-06-30T00:52:00.320Z,15.63
2023-06-30T00:54:27.114Z,15.59
2023-06-30T00:56:53.685Z,15.52
2023-06-30T00:59:20.347Z,15.48
2023-06-30T01:02:02.314Z,15.39
2023-06-30T01:04:44.226Z,15.31
2023-06-30T01:07:27.510Z,15.29
2023-06-30T01:10:08.009Z,15.31
2023-06-30T01:12:35.521Z,15.30
2023-06-30T01:15:03.107Z,15.31
2023-06-30T01:17:30.934Z,15.29
2023-06-30T01:19:59.829Z,15.27
2023-06-30T01:22:35.944Z,15.26
2023-06-30T01:25:06.872Z,15.27
2023-06-30T01:27:33.654Z,15.31
2023-06-30T01:30:00.834Z,15.34
2023-06-30T01:32:27.535Z,15.39
2023-06-30T01:34:54.307Z,15.48
2023-06-30T01:37:20.887Z,15.56
2023-06-30T01:39:47.400Z,15.61
2023-06-30T01:42:14.721Z,15.62
2023-06-30T01:44:42.963Z,15.56
2023-06-30T01:47:10.979Z,15.51
2023-06-30T01:49:37.807Z,15.47
2023-06-30T01:52:04.790Z,15.40
2023-06-30T01:54:31.372Z,15.34
2023-06-30T01:56:59.115Z,15.37
2023-06-30T01:59:25.672Z,15.32
2023-06-30T02:01:52.528Z,15.36
2023-06-30T02:04:19.147Z,15.36
2023-06-30T02:06:45.722Z,15.27
2023-06-30T02:09:15.100Z,15.28
2023-06-30T02:11:41.900Z,15.33
2023-06-30T02:14:08.579Z,15.40
2023-06-30T02:16:35.131Z,15.34
2023-06-30T02:19:01.664Z,15.24
2023-06-30T02:21:28.198Z,15.19
2023-06-30T02:23:54.768Z,15.18
2023-06-30T02:26:21.360Z,15.19
2023-06-30T02:28:47.883Z,15.19
2023-06-30T02:31:14.444Z,15.23
2023-06-30T02:33:41.000Z,15.21
2023-06-30T02:36:07.547Z,15.20
2023-06-30T02:38:34.138Z,15.24
2023-06-30T02:41:01.074Z,15.26
2023-06-30T02:43:27.624Z,15.28
2023-06-30T02:45:54.201Z,15.21
2023-06-30T02:48:20.807Z,15.15
2023-06-30T02:50:47.351Z,15.07
2023-06-30T02:53:13.914Z,15.02
2023-06-30T02:55:40.541Z,15.02
2023-06-30T02:58:07.261Z,14.99
2023-06-30T03:00:35.343Z,14.98
2023-06-30T03:03:02.134Z,15.05
2023-06-30T03:05:30.078Z,15.10
2023-06-30T03:07:56.752Z,15.13
2023-06-30T03:10:23.294Z,15.17
2023-06-30T03:12:49.844Z,15.20
2023-06-30T03:15:16.368Z,15.27
2023-06-30T03:17:42.990Z,15.24
2023-06-30T03:20:13.615Z,15.20
2023-06-30T03:22:43.510Z,15.22
2023-06-30T03:25:10.501Z,15.28
2023-06-30T03:27:37.107Z,15.27
2023-06-30T03:30:05.308Z,15.32
2023-06-30T03:32:32.775Z,15.37
2023-06-30T03:35:01.145Z,15.39
2023-06-30T03:37:27.680Z,15.45
2023-06-30T03:39:54.214Z,15.52
2023-06-30T03:42:20.754Z,15.59
2023-06-30T03:44:47.447Z,15.62
2023-06-30T03:47:14.121Z,15.62
2023-06-30T03:49:40.633Z,15.62
2023-06-30T03:52:07.811Z,15.63
2023-06-30T03:54:34.435Z,15.67
2023-06-30T03:57:01.226Z,15.67
2023-06-30T03:59:27.741Z,15.66
2023-06-30T04:01:55.086Z,15.73
2023-06-30T04:04:22.123Z,15.80
2023-06-30T04:06:48.805Z,15.89
2023-06-30T04:09:16.133Z,15.97
2023-06-30T04:11:43.150Z,15.98
2023-06-30T04:14:09.769Z,16.02
2023-06-30T04:16:36.639Z,16.13
2023-06-30T04:19:03.293Z,16.18
2023-06-30T04:21:29.874Z,16.23
2023-06-30T04:23:56.464Z,16.29
2023-06-30T04:26:23.039Z,16.42
2023-06-30T04:28:49.625Z,16.58
2023-06-30T04:31:16.212Z,16.79
2023-06-30T04:33:42.766Z,17.01
2023-06-30T04:36:09.688Z,17.19
2023-06-30T04:38:36.429Z,17.37
2023-06-30T04:41:03.087Z,17.53
2023-06-30T04:43:29.652Z,17.61
2023-06-30T04:45:56.346Z,17.68
2023-06-30T04:48:22.898Z,17.78
2023-06-30T04:50:49.448Z,17.93
2023-06-30T04:53:16.076Z,18.01
2023-06-30T04:55:42.827Z,18.03
2023-06-30T04:58:09.535Z,18.03
2023-06-30T05:00:36.056Z,18.08
2023-06-30T05:03:03.857Z,18.25
2023-06-30T05:05:30.571Z,18.49
2023-06-30T05:07:57.103Z,18.75
2023-06-30T05:10:23.668Z,18.97
2023-06-30T05:12:50.217Z,19.14
2023-06-30T05:15:16.854Z,19.29
2023-06-30T05:17:43.473Z,19.43
2023-06-30T05:20:10.654Z,19.51
2023-06-30T05:22:37.242Z,19.50
2023-06-30T05:25:04.065Z,19.49
2023-06-30T05:27:31.410Z,19.45
2023-06-30T05:29:58.191Z,19.37
2023-06-30T05:32:24.860Z,19.28
2023-06-30T05:34:51.678Z,19.15
2023-06-30T05:37:18.328Z,19.20
2023-06-30T05:39:44.850Z,19.28
2023-06-30T05:42:11.419Z,19.38
2023-06-30T05:44:38.034Z,19.56
2023-06-30T05:47:05.099Z,19.83
2023-06-30T05:49:31.750Z,20.15
2023-06-30T05:51:58.905Z,20.54
2023-06-30T05:54:25.600Z,20.97
2023-06-30T05:56:52.170Z,21.19
2023-06-30T05:59:18.739Z,21.42
2023-06-30T06:01:45.286Z,21.23
2023-06-30T06:04:12.727Z,21.00
2023-06-30T06:06:39.513Z,21.00
2023-06-30T06:09:07.075Z,21.36
2023-06-30T06:11:33.615Z,21.92
2023-06-30T06:14:00.146Z,22.46
2023-06-30T06:16:27.246Z,23.09
2023-06-30T06:18:53.860Z,23.55
2023-06-30T06:21:21.548Z,23.80
2023-06-30T06:23:48.106Z,23.71
2023-06-30T06:26:14.715Z,23.71
2023-06-30T06:28:41.300Z,23.89
2023-06-30T06:31:08.123Z,23.98
2023-06-30T06:33:34.740Z,24.07
2023-06-30T06:36:01.328Z,24.08
2023-06-30T06:38:27.922Z,24.15
2023-06-30T06:40:54.423Z,24.14
2023-06-30T06:43:27.099Z,24.14
2023-06-30T06:45:53.842Z,24.13
2023-06-30T06:48:25.451Z,24.02
2023-06-30T06:50:54.263Z,23.99
2023-06-30T06:53:27.030Z,24.12
2023-06-30T06:55:54.835Z,24.32
2023-06-30T06:58:22.164Z,24.48
2023-06-30T07:00:50.369Z,24.58
2023-06-30T07:03:17.834Z,24.73
2023-06-30T07:05:47.754Z,24.88
2023-06-30T07:08:16.458Z,24.96
2023-06-30T07:10:43.499Z,24.87
2023-06-30T07:13:10.168Z,25.07
2023-06-30T07:15:36.858Z,25.07
2023-06-30T07:18:04.002Z,25.12
2023-06-30T07:20:30.749Z,24.90
2023-06-30T07:22:57.832Z,25.05
2023-06-30T07:25:26.354Z,24.97
2023-06-30T07:27:55.711Z,25.00
2023-06-30T07:30:24.318Z,24.96
2023-06-30T07:32:51.203Z,25.08
2023-06-30T07:35:19.014Z,25.15
2023-06-30T07:37:46.476Z,25.28
2023-06-30T07:40:17.179Z,25.47
2023-06-30T07:42:47.272Z,25.60
2023-06-30T07:45:18.678Z,25.91
2023-06-30T07:47:49.971Z,26.61
2023-06-30T07:50:17.018Z,26.84
2023-06-30T07:52:46.588Z,27.30
2023-06-30T07:55:19.723Z,26.84
2023-06-30T07:57:48.501Z,26.29
2023-06-30T08:00:21.781Z,25.97
2023-06-30T08:02:48.798Z,26.75
2023-06-30T08:05:15.948Z,27.42
2023-06-30T08:07:49.791Z,27.29
2023-06-30T08:10:18.066Z,27.12
2023-06-30T08:12:44.704Z,27.02
2023-06-30T08:15:11.448Z,26.87
2023-06-30T08:17:52.150Z,26.80
2023-06-30T08:20:22.702Z,26.72
2023-06-30T08:22:49.471Z,26.48
2023-06-30T08:25:17.153Z,26.05
2023-06-30T08:27:43.966Z,25.74
2023-06-30T08:30:10.875Z,25.42
2023-06-30T08:32:37.614Z,25.29
2023-06-30T08:35:04.442Z,25.20
2023-06-30T08:37:31.040Z,25.05
2023-06-30T08:39:57.653Z,24.84
2023-06-30T08:42:28.857Z,24.72
2023-06-30T08:44:57.721Z,24.52
2023-06-30T08:47:32.694Z,24.45
2023-06-30T08:50:03.047Z,24.47
2023-06-30T08:52:29.803Z,24.59
2023-06-30T08:54:56.953Z,24.62
2023-06-30T08:57:24.267Z,24.73
2023-06-30T08:59:50.943Z,24.80
2023-06-30T09:02:17.986Z,24.80
2023-06-30T09:04:44.997Z,24.61
2023-06-30T09:07:21.599Z,24.40
2023-06-30T09:09:49.018Z,24.13
2023-06-30T09:12:16.344Z,23.92
2023-06-30T09:14:45.850Z,23.79
2023-06-30T09:17:12.987Z,23.72
2023-06-30T09:19:40.118Z,23.64
2023-06-30T09:22:55.260Z,23.58
2023-06-30T09:24:54.363Z,23.51
2023-06-30T09:27:20.998Z,23.43
2023-06-30T09:30:06.130Z,23.41
2023-06-30T09:32:33.639Z,23.31
2023-06-30T09:35:10.092Z,23.26
2023-06-30T09:37:43.782Z,23.22
2023-06-30T09:40:14.022Z,23.12
2023-06-30T09:42:42.270Z,23.13
2023-06-30T09:45:09.071Z,23.11
2023-06-30T09:47:35.775Z,23.08
2023-06-30T09:50:03.255Z,23.07
2023-06-30T09:52:32.135Z,23.03
2023-06-30T09:54:58.664Z,23.11
2023-06-30T09:57:28.731Z,23.28
2023-06-30T09:59:55.403Z,23.44
2023-06-30T10:02:21.994Z,23.67
2023-06-30T10:04:48.542Z,23.80
2023-06-30T10:07:16.270Z,24.09
2023-06-30T10:09:48.046Z,24.15
2023-06-30T10:12:15.795Z,23.99
2023-06-30T10:14:46.146Z,23.83
2023-06-30T10:17:13.412Z,23.57
2023-06-30T10:19:41.284Z,23.38
2023-06-30T10:22:08.055Z,23.32
2023-06-30T10:24:39.074Z,23.19
2023-06-30T10:27:09.997Z,23.20
2023-06-30T10:29:36.956Z,23.27
2023-06-30T10:32:04.477Z,23.39
2023-06-30T10:34:31.928Z,23.55
2023-06-30T10:36:59.705Z,23.50
2023-06-30T10:39:27.485Z,23.37
2023-06-30T10:41:57.156Z,23.17
2023-06-30T10:44:36.478Z,22.96
2023-06-30T10:47:03.437Z,22.91
2023-06-30T10:49:34.713Z,22.82
2023-06-30T10:52:08.045Z,22.85
2023-06-30T10:54:51.027Z,22.95
2023-06-30T10:57:40.361Z,22.94
2023-06-30T11:00:15.737Z,22.89
2023-06-30T11:02:55.041Z,22.86
2023-06-30T11:05:32.363Z,22.72
2023-06-30T11:08:10.367Z,22.65
2023-06-30T11:10:47.115Z,22.65
2023-06-30T11:13:14.574Z,22.75
2023-06-30T11:15:52.537Z,22.68
2023-06-30T11:18:24.774Z,22.58
2023-06-30T11:21:04.798Z,22.44
2023-06-30T11:23:39.096Z,22.32
2023-06-30T11:26:17.642Z,22.19
2023-06-30T11:28:48.921Z,22.09
2023-06-30T11:31:16.521Z,22.09
2023-06-30T11:33:44.809Z,22.10
2023-06-30T11:36:15.807Z,22.20
2023-06-30T11:38:50.040Z,22.23
2023-06-30T11:41:21.228Z,22.27
2023-06-30T11:43:56.658Z,22.29
2023-06-30T11:46:24.194Z,22.31
2023-06-30T11:48:50.825Z,22.35
2023-06-30T11:53:50.624Z,22.41
2023-06-30T11:56:20.804Z,22.55
2023-06-30T11:58:51.589Z,22.70
2023-06-30T12:01:18.335Z,22.81
2023-06-30T12:03:44.970Z,22.96
2023-06-30T12:06:11.556Z,23.14
2023-06-30T12:08:40.022Z,23.47
2023-06-30T12:11:09.715Z,24.29
2023-06-30T12:13:38.837Z,25.60
2023-06-30T12:16:05.933Z,27.15
2023-06-30T12:18:39.846Z,28.16
2023-06-30T12:21:14.264Z,28.60
2023-06-30T12:23:44.930Z,28.44
2023-06-30T12:26:12.612Z,28.41
2023-06-30T12:28:39.432Z,28.19
2023-06-30T12:31:08.100Z,28.22
2023-06-30T12:33:34.648Z,28.08
2023-06-30T12:36:07.269Z,28.10
2023-06-30T12:38:33.811Z,28.33
2023-06-30T12:41:00.627Z,28.37
2023-06-30T12:43:28.371Z,28.36
2023-06-30T12:45:55.115Z,28.34
2023-06-30T12:48:21.701Z,28.04
2023-06-30T12:50:48.526Z,27.73
2023-06-30T12:53:15.351Z,27.64
2023-06-30T12:55:41.905Z,27.63
2023-06-30T12:58:09.120Z,27.71
2023-06-30T13:00:36.236Z,27.63
2023-06-30T13:03:02.823Z,27.98
2023-06-30T13:05:29.435Z,28.67
2023-06-30T13:07:56.922Z,29.20
2023-06-30T13:10:23.855Z,29.52
2023-06-30T13:12:50.954Z,29.46
2023-06-30T13:15:17.560Z,29.10
2023-06-30T13:17:44.787Z,28.77
2023-06-30T13:20:11.483Z,28.21
2023-06-30T13:22:42.866Z,28.08
2023-06-30T13:25:20.003Z,27.77
2023-06-30T13:27:46.669Z,28.01
2023-06-30T13:30:13.406Z,28.44
2023-06-30T13:32:40.665Z,28.71
2023-06-30T13:35:08.326Z,28.51
2023-06-30T13:37:34.919Z,28.38
2023-06-30T13:40:01.492Z,28.32
2023-06-30T13:42:28.800Z,28.26
2023-06-30T13:44:55.748Z,28.09
2023-06-30T13:47:22.434Z,28.10
2023-06-30T13:49:49.006Z,28.51
2023-06-30T13:52:15.626Z,28.83
2023-06-30T13:54:42.264Z,28.42
2023-06-30T13:57:08.976Z,28.58
2023-06-30T13:59:35.556Z,28.77
2023-06-30T14:02:02.073Z,29.00
2023-06-30T14:04:29.237Z,28.93
2023-06-30T14:06:55.879Z,28.69
2023-06-30T14:09:22.552Z,28.60
2023-06-30T14:11:49.078Z,28.13
2023-06-30T14:14:15.799Z,27.38
2023-06-30T14:16:43.209Z,27.60
2023-06-30T14:19:09.754Z,27.58
2023-06-30T14:21:36.375Z,27.36
2023-06-30T14:24:03.273Z,27.31
2023-06-30T14:26:31.121Z,27.01
2023-06-30T14:28:58.043Z,26.63
2023-06-30T14:31:24.688Z,26.75
2023-06-30T14:33:51.208Z,26.98
2023-06-30T14:36:17.897Z,26.98
2023-06-30T14:38:44.654Z,26.88
2023-06-30T14:41:11.204Z,27.13
2023-06-30T14:43:37.795Z,27.50
2023-06-30T14:46:04.422Z,27.76
2023-06-30T14:48:31.057Z,27.70
2023-06-30T14:50:57.751Z,27.21
2023-06-30T14:53:24.409Z,27.28
2023-06-30T14:55:50.996Z,27.10
2023-06-30T14:58:17.576Z,26.68
2023-06-30T15:00:44.083Z,26.50
2023-06-30T15:03:11.090Z,26.01
2023-06-30T15:05:37.667Z,26.15
2023-06-30T15:08:04.620Z,26.48
2023-06-30T15:10:31.177Z,26.40
2023-06-30T15:12:57.707Z,26.66
2023-06-30T15:15:24.265Z,26.61
2023-06-30T15:17:50.913Z,26.24
2023-06-30T15:20:17.657Z,25.95
2023-06-30T15:22:44.227Z,25.75
2023-06-30T15:25:26.010Z,25.50
2023-06-30T15:27:53.545Z,25.45
2023-06-30T15:30:21.088Z,25.44
2023-06-30T15:32:47.873Z,25.36
2023-06-30T15:35:14.768Z,25.23
2023-06-30T15:37:41.756Z,25.15
2023-06-30T15:40:09.238Z,24.97
2023-06-30T15:42:35.843Z,24.96
2023-06-30T15:45:03.673Z,25.01
2023-06-30T15:47:30.285Z,24.96
2023-06-30T15:49:56.847Z,24.71
2023-06-30T15:52:23.460Z,24.64
2023-06-30T15:55:07.994Z,24.72
2023-06-30T15:57:35.031Z,24.58
2023-06-30T16:00:01.738Z,24.53
2023-06-30T16:02:28.472Z,24.57
2023-06-30T16:04:55.134Z,24.57
2023-06-30T16:07:21.807Z,24.56
2023-06-30T16:09:48.333Z,24.55
2023-06-30T16:12:15.217Z,24.54
2023-06-30T16:14:41.773Z,24.47
2023-06-30T16:17:08.311Z,24.40
2023-06-30T16:19:34.850Z,24.29
2023-06-30T16:22:01.387Z,24.29
2023-06-30T16:24:28.428Z,24.11
2023-06-30T16:26:55.049Z,23.92
2023-06-30T16:29:21.620Z,23.76
2023-06-30T16:31:48.180Z,23.60
2023-06-30T16:34:14.815Z,23.47
2023-06-30T16:36:41.354Z,23.36
2023-06-30T16:39:07.888Z,23.26
2023-06-30T16:41:34.427Z,23.18
2023-06-30T16:44:01.040Z,23.17
2023-06-30T16:46:27.724Z,23.11
2023-06-30T16:48:54.275Z,22.96
2023-06-30T16:51:20.810Z,22.61
2023-06-30T16:53:47.367Z,22.28
2023-06-30T16:56:13.925Z,22.18
2023-06-30T16:58:40.463Z,21.94
2023-06-30T17:01:07.063Z,21.83
2023-06-30T17:03:33.680Z,21.66
2023-06-30T17:06:00.371Z,21.54
2023-06-30T17:08:27.851Z,21.44
2023-06-30T17:10:54.850Z,21.42
2023-06-30T17:13:21.635Z,21.39
2023-06-30T17:15:48.478Z,21.38
2023-06-30T17:18:15.168Z,21.38
2023-06-30T17:20:41.717Z,21.32
2023-06-30T17:23:08.446Z,21.34
2023-06-30T17:25:34.969Z,21.42
2023-06-30T17:28:01.461Z,21.38
2023-06-30T17:30:28.057Z,21.38
2023-06-30T17:32:54.707Z,21.36
2023-06-30T17:35:21.430Z,21.34
2023-06-30T17:37:47.990Z,21.36
2023-06-30T17:40:14.568Z,21.30
2023-06-30T17:42:41.253Z,21.14
2023-06-30T17:45:08.068Z,21.16
2023-06-30T17:47:34.719Z,21.14
2023-06-30T17:50:01.313Z,21.08
2023-06-30T17:52:27.915Z,21.10
2023-06-30T17:54:54.532Z,21.08
2023-06-30T17:57:21.056Z,21.03
2023-06-30T17:59:47.575Z,20.97
2023-06-30T18:02:14.295Z,20.88
2023-06-30T18:04:40.997Z,20.81
2023-06-30T18:07:10.874Z,20.87
2023-06-30T18:09:39.042Z,20.90
2023-06-30T18:12:06.405Z,20.85
2023-06-30T18:14:33.467Z,20.78
2023-06-30T18:17:01.263Z,20.67
2023-06-30T18:19:28.456Z,20.48
2023-06-30T18:21:56.054Z,20.43
2023-06-30T18:24:23.270Z,20.39
2023-06-30T18:26:50.602Z,20.31
2023-06-30T18:29:20.704Z,20.25
2023-06-30T18:31:47.429Z,20.22
2023-06-30T18:34:14.201Z,20.21
2023-06-30T18:36:40.754Z,20.17
2023-06-30T18:39:07.285Z,20.18
2023-06-30T18:41:33.898Z,20.16
2023-06-30T18:44:00.449Z,20.16
2023-06-30T18:46:30.610Z,20.14
2023-06-30T18:49:02.303Z,20.16
2023-06-30T18:51:30.692Z,20.14
2023-06-30T18:53:57.365Z,20.10
2023-06-30T18:56:24.433Z,20.09
2023-06-30T18:58:55.443Z,20.03
2023-06-30T19:01:22.215Z,20.02
2023-06-30T19:03:51.022Z,20.02
2023-06-30T19:06:20.658Z,19.98
2023-06-30T19:08:47.542Z,19.96
2023-06-30T19:11:14.162Z,19.93
2023-06-30T19:13:40.741Z,19.89
2023-06-30T19:16:07.385Z,19.83
2023-06-30T19:18:35.709Z,19.79
2023-06-30T19:21:03.574Z,19.74
2023-06-30T19:23:30.335Z,19.61
2023-06-30T19:25:56.880Z,19.53
2023-06-30T19:28:23.471Z,19.50
2023-06-30T19:30:51.752Z,19.48
2023-06-30T19:33:21.024Z,19.47
2023-06-30T19:35:47.770Z,19.44
2023-06-30T19:38:14.479Z,19.44
2023-06-30T19:40:41.055Z,19.37
2023-06-30T19:43:07.542Z,19.38
2023-06-30T19:45:34.085Z,19.41
2023-06-30T19:48:00.732Z,19.40
2023-06-30T19:50:28.973Z,19.38
2023-06-30T19:52:55.629Z,19.40
2023-06-30T19:55:22.303Z,19.38
2023-06-30T19:57:48.922Z,19.38
2023-06-30T20:00:16.068Z,19.40
2023-06-30T20:02:44.021Z,19.40
2023-06-30T20:05:10.689Z,19.38
2023-06-30T20:07:37.450Z,19.38
2023-06-30T20:10:05.276Z,19.38
2023-06-30T20:12:31.832Z,19.35
2023-06-30T20:14:58.440Z,19.34
2023-06-30T20:17:26.751Z,19.33
2023-06-30T20:19:53.628Z,19.32
2023-06-30T20:22:20.241Z,19.29
2023-06-30T20:24:47.797Z,19.29
2023-06-30T20:27:16.243Z,19.29
2023-06-30T20:29:42.958Z,19.28
2023-06-30T20:32:10.548Z,19.28
2023-06-30T20:34:37.071Z,19.29
2023-06-30T20:37:03.960Z,19.30
2023-06-30T20:39:30.545Z,19.27
2023-06-30T20:41:57.093Z,19.24
2023-06-30T20:44:23.691Z,19.23
2023-06-30T20:46:50.324Z,19.22
2023-06-30T20:49:16.906Z,19.23
2023-06-30T20:51:43.435Z,19.22
2023-06-30T20:54:09.981Z,19.19
2023-06-30T20:56:36.549Z,19.15
2023-06-30T20:59:03.199Z,19.14
2023-06-30T21:01:29.761Z,19.15
2023-06-30T21:03:56.468Z,19.14
2023-06-30T21:06:23.140Z,19.16
2023-06-30T21:08:49.745Z,19.15
2023-06-30T21:11:16.364Z,19.15
2023-06-30T21:13:42.972Z,19.16
2023-06-30T21:19:17.644Z,19.17
2023-06-30T21:21:44.328Z,19.17
2023-06-30T21:24:11.106Z,19.17
2023-06-30T21:26:43.140Z,19.14
2023-06-30T21:29:12.288Z,19.14
2023-06-30T21:31:39.302Z,19.16
2023-06-30T21:34:05.995Z,19.14
2023-06-30T21:36:32.670Z,19.13
2023-06-30T21:38:59.313Z,19.14
2023-06-30T21:41:25.885Z,19.16
2023-06-30T21:43:52.453Z,19.15
2023-06-30T21:46:19.059Z,19.17
2023-06-30T21:48:45.695Z,19.19
2023-06-30T21:51:12.282Z,19.18
2023-06-30T21:53:38.988Z,19.17
2023-06-30T21:56:05.765Z,19.20
2023-06-30T21:58:32.393Z,19.18
2023-06-30T22:00:58.994Z,19.19
2023-06-30T22:03:26.116Z,19.22
2023-06-30T22:05:53.337Z,19.20
2023-06-30T22:08:20.151Z,19.20
2023-06-30T22:10:47.156Z,19.19
2023-06-30T22:13:14.165Z,19.20
2023-06-30T22:15:40.671Z,19.18
2023-06-30T22:18:07.493Z,19.16
2023-06-30T22:20:34.121Z,19.13
2023-06-30T22:23:01.268Z,19.09
2023-06-30T22:25:27.929Z,19.06
2023-06-30T22:27:56.709Z,19.03
2023-06-30T22:30:26.175Z,18.98
2023-06-30T22:32:53.367Z,18.94
2023-06-30T22:35:19.975Z,18.93
2023-06-30T22:37:47.555Z,18.91
2023-06-30T22:40:14.726Z,18.88
2023-06-30T22:42:41.334Z,18.86
2023-06-30T22:45:08.264Z,18.84
2023-06-30T22:47:34.899Z,18.81
2023-06-30T22:50:01.952Z,18.78
2023-06-30T22:52:28.606Z,18.77
2023-06-30T22:54:55.270Z,18.74
2023-06-30T22:57:21.842Z,18.72
2023-06-30T22:59:52.230Z,18.69
2023-06-30T23:02:19.595Z,18.67
2023-06-30T23:04:46.466Z,18.63
2023-06-30T23:07:13.235Z,18.61
2023-06-30T23:09:40.638Z,18.58
2023-06-30T23:12:07.554Z,18.58
2023-06-30T23:14:34.267Z,18.55
2023-06-30T23:17:00.884Z,18.53
2023-06-30T23:19:27.585Z,18.50
2023-06-30T23:22:06.356Z,18.48
2023-06-30T23:24:34.418Z,18.43
2023-06-30T23:27:04.650Z,18.43
2023-06-30T23:29:37.099Z,18.40
2023-06-30T23:32:07.703Z,18.38
2023-06-30T23:34:36.194Z,18.39
2023-06-30T23:37:12.401Z,18.39
2023-06-30T23:39:38.996Z,18.39
2023-06-30T23:42:05.751Z,18.38
2023-06-30T23:44:32.327Z,18.38
2023-06-30T23:47:01.962Z,18.37
2023-06-30T23:49:28.572Z,18.37
2023-06-30T23:51:55.160Z,18.36
2023-06-30T23:54:23.538Z,18.36
2023-06-30T23:56:50.927Z,18.34
2023-06-30T23:59:17.481Z,18.35
